createdAt,value
2017-06-22T00:00:59.805Z,19.57
2017-06-22T00:03:28.166Z,20.03
2017-06-22T00:05:56.520Z,21.23
2017-06-22T00:08:24.862Z,19.27
2017-06-22T00:10:53.228Z,19.67
2017-06-22T00:13:21.602Z,21.97
2017-06-22T00:15:49.986Z,20.60
2017-06-22T00:18:18.325Z,23.67
2017-06-22T00:20:46.708Z,23.90
2017-06-22T00:23:15.063Z,22.07
2017-06-22T00:25:43.422Z,23.13
2017-06-22T00:28:11.769Z,26.17
2017-06-22T00:30:40.137Z,21.00
2017-06-22T00:33:08.481Z,19.27
2017-06-22T00:35:36.893Z,21.53
2017-06-22T00:38:05.293Z,20.27
2017-06-22T00:40:33.609Z,23.27
2017-06-22T00:43:02.063Z,20.43
2017-06-22T00:45:30.431Z,20.30
2017-06-22T00:47:58.753Z,19.97
2017-06-22T00:50:27.109Z,20.90
2017-06-22T00:52:55.534Z,20.93
2017-06-22T00:55:23.893Z,25.07
2017-06-22T00:57:52.245Z,19.37
2017-06-22T01:00:20.654Z,25.27
2017-06-22T01:02:49.061Z,21.50
2017-06-22T01:05:17.456Z,25.67
2017-06-22T01:07:45.802Z,21.67
2017-06-22T01:10:14.225Z,24.10
2017-06-22T01:12:42.568Z,24.77
2017-06-22T01:15:10.983Z,20.33
2017-06-22T01:17:39.333Z,23.33
2017-06-22T01:20:07.770Z,23.97
2017-06-22T01:22:36.145Z,21.03
2017-06-22T01:25:04.509Z,24.30
2017-06-22T01:27:32.917Z,25.97
2017-06-22T01:30:01.423Z,22.63
2017-06-22T01:32:29.776Z,19.33
2017-06-22T01:34:58.132Z,26.73
2017-06-22T01:37:26.478Z,20.70
2017-06-22T01:39:54.833Z,21.43
2017-06-22T01:42:23.169Z,21.00
2017-06-22T01:44:51.532Z,20.00
2017-06-22T01:47:19.978Z,19.47
2017-06-22T01:49:48.334Z,23.43
2017-06-22T01:52:16.661Z,17.87
2017-06-22T01:54:45.030Z,19.87
2017-06-22T01:57:13.369Z,21.80
2017-06-22T01:59:41.725Z,22.73
2017-06-22T02:02:10.126Z,19.47
2017-06-22T02:04:38.489Z,21.17
2017-06-22T02:07:06.853Z,21.63
2017-06-22T02:09:35.197Z,19.63
2017-06-22T02:12:03.599Z,21.10
2017-06-22T02:14:31.930Z,22.17
2017-06-22T02:17:00.273Z,24.50
2017-06-22T02:19:28.628Z,24.23
2017-06-22T02:21:56.969Z,21.13
2017-06-22T02:24:25.310Z,21.50
2017-06-22T02:26:53.719Z,23.43
2017-06-22T02:29:22.049Z,21.80
2017-06-22T02:31:50.405Z,23.50
2017-06-22T02:34:18.800Z,27.37
2017-06-22T02:36:47.168Z,25.90
2017-06-22T02:39:15.622Z,21.27
2017-06-22T02:41:43.968Z,27.00
2017-06-22T02:44:12.297Z,23.93
2017-06-22T02:46:40.669Z,24.25
2017-06-22T02:49:09.009Z,24.10
2017-06-22T02:51:37.356Z,24.47
2017-06-22T02:54:05.718Z,24.47
2017-06-22T02:56:34.056Z,22.90
2017-06-22T02:59:02.400Z,21.17
2017-06-22T03:01:30.770Z,23.55
2017-06-22T03:03:59.137Z,24.77
2017-06-22T03:06:27.483Z,22.77
2017-06-22T03:08:55.828Z,24.53
2017-06-22T03:11:24.201Z,23.67
2017-06-22T03:13:52.581Z,23.83
2017-06-22T03:16:20.922Z,21.67
2017-06-22T03:18:49.285Z,25.20
2017-06-22T03:21:17.643Z,21.40
2017-06-22T03:23:45.991Z,25.77
2017-06-22T03:26:14.338Z,24.43
2017-06-22T03:28:42.783Z,29.00
2017-06-22T03:31:11.218Z,26.47
2017-06-22T03:33:39.574Z,23.27
2017-06-22T03:36:07.920Z,22.85
2017-06-22T03:38:36.277Z,26.30
2017-06-22T03:41:04.626Z,22.57
2017-06-22T03:43:32.973Z,20.73
2017-06-22T03:46:01.414Z,22.60
2017-06-22T03:48:29.752Z,27.13
2017-06-22T03:50:58.116Z,24.57
2017-06-22T03:53:26.461Z,20.90
2017-06-22T03:55:54.812Z,24.23
2017-06-22T03:58:23.151Z,22.20
2017-06-22T04:00:51.492Z,21.47
2017-06-22T04:03:19.875Z,28.90
2017-06-22T04:05:48.247Z,21.77
2017-06-22T04:08:16.609Z,20.27
2017-06-22T04:10:44.966Z,19.80
2017-06-22T04:13:13.321Z,23.33
2017-06-22T04:15:41.677Z,23.23
2017-06-22T04:18:10.119Z,20.30
2017-06-22T04:20:38.503Z,18.13
2017-06-22T04:23:06.856Z,21.27
2017-06-22T04:25:35.247Z,22.93
2017-06-22T04:28:03.687Z,26.50
2017-06-22T04:30:32.024Z,18.73
2017-06-22T04:33:00.385Z,19.43
2017-06-22T04:35:28.721Z,19.00
2017-06-22T04:37:57.091Z,22.60
2017-06-22T04:40:25.457Z,23.20
2017-06-22T04:42:53.797Z,19.67
2017-06-22T04:45:22.190Z,24.17
2017-06-22T04:47:50.537Z,20.20
2017-06-22T04:50:18.924Z,24.93
2017-06-22T04:52:47.303Z,23.07
2017-06-22T04:55:15.816Z,24.40
2017-06-22T04:57:44.159Z,19.60
2017-06-22T05:00:12.559Z,21.77
2017-06-22T05:02:40.941Z,21.40
2017-06-22T05:05:09.339Z,21.83
2017-06-22T05:07:37.680Z,24.10
2017-06-22T05:10:06.063Z,21.60
2017-06-22T05:12:34.412Z,21.73
2017-06-22T05:15:02.772Z,23.47
2017-06-22T05:17:31.120Z,25.00
2017-06-22T05:19:59.465Z,38.37
2017-06-22T05:22:27.801Z,25.27
2017-06-22T05:24:56.142Z,28.80
2017-06-22T05:27:24.507Z,20.77
2017-06-22T05:29:53.017Z,22.97
2017-06-22T05:32:21.437Z,27.07
2017-06-22T05:34:49.760Z,22.83
2017-06-22T05:37:18.110Z,24.60
2017-06-22T05:39:46.454Z,29.37
2017-06-22T05:42:14.801Z,31.00
2017-06-22T05:44:43.141Z,21.30
2017-06-22T05:47:11.510Z,27.77
2017-06-22T05:49:39.888Z,21.43
2017-06-22T05:52:08.235Z,20.60
2017-06-22T05:54:36.589Z,21.60
2017-06-22T05:57:04.940Z,23.17
2017-06-22T05:59:33.302Z,23.60
2017-06-22T06:02:01.649Z,25.13
2017-06-22T06:04:30.003Z,20.47
2017-06-22T06:06:58.365Z,30.80
2017-06-22T06:09:26.705Z,22.00
2017-06-22T06:11:55.081Z,20.77
2017-06-22T06:14:23.597Z,23.50
2017-06-22T06:16:51.965Z,22.87
2017-06-22T06:19:20.342Z,45.13
2017-06-22T06:21:48.681Z,24.67
2017-06-22T06:24:17.196Z,33.07
2017-06-22T06:26:45.529Z,27.17
2017-06-22T06:29:13.885Z,41.63
2017-06-22T06:31:42.337Z,49.80
2017-06-22T06:34:10.668Z,42.77
2017-06-22T06:36:39.054Z,25.40
2017-06-22T06:39:07.409Z,25.93
2017-06-22T06:41:35.794Z,45.37
2017-06-22T06:44:04.133Z,30.33
2017-06-22T06:46:32.498Z,35.60
2017-06-22T06:49:00.826Z,35.70
2017-06-22T06:51:29.185Z,35.20
2017-06-22T06:53:57.569Z,39.47
2017-06-22T06:56:25.941Z,42.37
2017-06-22T06:58:54.276Z,47.17
2017-06-22T07:01:22.633Z,44.80
2017-06-22T07:03:51.022Z,48.03
2017-06-22T07:06:19.600Z,44.70
2017-06-22T07:08:47.954Z,38.40
2017-06-22T07:11:16.358Z,39.03
2017-06-22T07:13:44.710Z,41.47
2017-06-22T07:16:13.064Z,36.40
2017-06-22T07:18:41.494Z,41.70
2017-06-22T07:21:09.849Z,38.73
2017-06-22T07:23:38.213Z,23.57
2017-06-22T07:26:06.590Z,41.00
2017-06-22T07:28:34.928Z,36.00
2017-06-22T07:31:03.282Z,27.77
2017-06-22T07:33:31.718Z,31.57
2017-06-22T07:36:00.062Z,31.30
2017-06-22T07:38:28.411Z,28.10
2017-06-22T07:40:56.752Z,34.03
2017-06-22T07:43:25.092Z,39.90
2017-06-22T07:45:53.449Z,31.97
2017-06-22T07:48:21.797Z,28.00
2017-06-22T07:50:50.158Z,25.20
2017-06-22T07:53:18.520Z,25.33
2017-06-22T07:55:46.867Z,21.20
2017-06-22T07:58:15.222Z,29.00
2017-06-22T08:00:43.705Z,21.57
2017-06-22T08:03:12.042Z,20.40
2017-06-22T08:05:40.428Z,19.40
2017-06-22T08:08:08.757Z,21.23
2017-06-22T08:10:37.105Z,15.63
2017-06-22T08:13:05.462Z,18.93
2017-06-22T08:15:33.805Z,20.00
2017-06-22T08:18:02.181Z,18.80
2017-06-22T08:20:30.516Z,17.67
2017-06-22T08:22:58.877Z,19.20
2017-06-22T08:25:27.236Z,18.60
2017-06-22T08:27:55.645Z,18.07
2017-06-22T08:30:24.075Z,18.00
2017-06-22T08:32:52.429Z,17.67
2017-06-22T08:35:20.831Z,17.33
2017-06-22T08:37:49.263Z,18.40
2017-06-22T08:40:17.634Z,20.23
2017-06-22T08:42:45.960Z,19.07
2017-06-22T08:45:14.404Z,17.77
2017-06-22T08:47:42.746Z,20.40
2017-06-22T08:50:11.160Z,17.50
2017-06-22T08:52:39.534Z,20.37
2017-06-22T08:55:07.934Z,19.20
2017-06-22T08:57:36.276Z,19.07
2017-06-22T09:00:04.656Z,18.83
2017-06-22T09:02:33.017Z,21.60
2017-06-22T09:05:01.368Z,18.60
2017-06-22T09:07:29.706Z,20.23
2017-06-22T09:09:58.065Z,19.77
2017-06-22T09:12:26.411Z,20.07
2017-06-22T09:14:54.756Z,19.60
2017-06-22T09:17:23.132Z,22.83
2017-06-22T09:19:51.486Z,27.20
2017-06-22T09:22:19.835Z,18.27
2017-06-22T09:24:48.181Z,18.43
2017-06-22T09:27:16.536Z,17.13
2017-06-22T09:29:44.900Z,19.13
2017-06-22T09:32:13.237Z,19.00
2017-06-22T09:34:41.652Z,18.30
2017-06-22T09:37:09.997Z,16.80
2017-06-22T09:39:38.332Z,16.90
2017-06-22T09:42:06.699Z,16.57
2017-06-22T09:44:35.046Z,17.77
2017-06-22T09:47:03.437Z,17.43
2017-06-22T09:49:31.780Z,22.13
2017-06-22T09:52:00.134Z,16.17
2017-06-22T09:54:28.502Z,15.33
2017-06-22T09:56:56.854Z,15.53
2017-06-22T09:59:25.210Z,17.27
2017-06-22T10:01:53.551Z,16.33
2017-06-22T10:04:21.899Z,15.30
2017-06-22T10:06:50.249Z,15.73
2017-06-22T10:09:18.585Z,13.93
2017-06-22T10:11:46.925Z,14.83
2017-06-22T10:14:15.284Z,15.83
2017-06-22T10:16:43.630Z,17.77
2017-06-22T10:19:12.016Z,14.83
2017-06-22T10:21:40.346Z,17.13
2017-06-22T10:24:08.689Z,13.00
2017-06-22T10:26:37.032Z,12.93
2017-06-22T10:29:05.393Z,15.70
2017-06-22T10:31:33.766Z,10.80
2017-06-22T10:34:02.098Z,10.97
2017-06-22T10:36:30.443Z,11.10
2017-06-22T10:38:58.773Z,9.70
2017-06-22T10:41:27.209Z,11.27
2017-06-22T10:43:55.560Z,10.20
2017-06-22T10:46:23.884Z,9.97
2017-06-22T10:48:52.250Z,10.50
2017-06-22T10:51:20.653Z,12.10
2017-06-22T10:53:49.006Z,11.20
2017-06-22T10:56:17.365Z,9.93
2017-06-22T10:58:45.704Z,10.60
2017-06-22T11:01:14.024Z,10.07
2017-06-22T11:03:42.385Z,10.50
2017-06-22T11:06:10.714Z,15.43
2017-06-22T11:08:39.130Z,9.43
2017-06-22T11:11:07.462Z,8.87
2017-06-22T11:13:35.825Z,10.40
2017-06-22T11:16:04.198Z,9.23
2017-06-22T11:18:32.518Z,10.13
2017-06-22T11:21:00.857Z,10.17
2017-06-22T11:23:29.193Z,9.97
2017-06-22T11:25:57.506Z,9.90
2017-06-22T11:28:25.859Z,10.40
2017-06-22T11:30:54.192Z,9.77
2017-06-22T11:33:22.590Z,11.43
2017-06-22T11:35:50.922Z,9.80
2017-06-22T11:38:19.277Z,10.37
2017-06-22T11:40:47.625Z,12.27
2017-06-22T11:43:15.981Z,9.73
2017-06-22T11:45:44.376Z,10.60
2017-06-22T11:48:12.717Z,11.43
2017-06-22T11:50:41.857Z,9.60
2017-06-22T11:53:10.244Z,10.60
2017-06-22T11:55:38.573Z,9.83
2017-06-22T11:58:06.929Z,9.40
2017-06-22T12:00:35.281Z,10.30
2017-06-22T12:03:03.620Z,9.30
2017-06-22T12:05:32.014Z,9.70
2017-06-22T12:08:00.340Z,10.80
2017-06-22T12:10:28.675Z,11.37
2017-06-22T12:12:57.017Z,11.93
2017-06-22T12:15:25.393Z,12.50
2017-06-22T12:17:53.720Z,10.07
2017-06-22T12:20:22.096Z,8.10
2017-06-22T12:22:50.429Z,7.80
2017-06-22T12:25:18.840Z,7.37
2017-06-22T12:27:47.172Z,7.53
2017-06-22T12:30:15.555Z,7.97
2017-06-22T12:32:43.882Z,16.97
2017-06-22T12:35:12.301Z,15.00
2017-06-22T12:37:40.641Z,10.40
2017-06-22T12:40:09.017Z,35.23
2017-06-22T12:42:37.713Z,7.37
2017-06-22T12:45:06.095Z,7.63
2017-06-22T12:47:34.421Z,7.87
2017-06-22T12:50:02.908Z,7.20
2017-06-22T12:52:31.227Z,7.90
2017-06-22T12:54:59.556Z,8.80
2017-06-22T12:57:27.926Z,9.27
2017-06-22T12:59:56.261Z,6.40
2017-06-22T13:02:24.580Z,6.80
2017-06-22T13:04:52.920Z,7.80
2017-06-22T13:07:21.250Z,7.83
2017-06-22T13:09:49.606Z,7.33
2017-06-22T13:12:17.948Z,6.77
2017-06-22T13:14:46.306Z,7.40
2017-06-22T13:17:14.685Z,6.87
2017-06-22T13:19:43.093Z,10.43
2017-06-22T13:22:11.437Z,6.47
2017-06-22T13:24:39.785Z,6.57
2017-06-22T13:27:08.141Z,7.33
2017-06-22T13:29:36.487Z,6.50
2017-06-22T13:32:04.832Z,6.97
2017-06-22T13:34:33.185Z,7.17
2017-06-22T13:37:01.549Z,7.50
2017-06-22T13:39:29.876Z,7.27
2017-06-22T13:41:58.247Z,7.87
2017-06-22T13:44:26.558Z,8.20
2017-06-22T13:46:54.909Z,8.87
2017-06-22T13:49:23.274Z,7.57
2017-06-22T13:51:51.609Z,14.03
2017-06-22T13:54:19.989Z,8.57
2017-06-22T13:56:48.340Z,9.17
2017-06-22T13:59:16.674Z,8.57
2017-06-22T14:01:45.009Z,8.40
2017-06-22T14:04:13.392Z,10.10
2017-06-22T14:06:41.762Z,7.37
2017-06-22T14:09:10.124Z,8.30
2017-06-22T14:11:38.441Z,7.57
2017-06-22T14:14:06.781Z,8.10
2017-06-22T14:16:35.138Z,8.23
2017-06-22T14:19:03.473Z,8.10
2017-06-22T14:21:31.819Z,8.73
2017-06-22T14:24:00.170Z,10.50
2017-06-22T14:26:28.599Z,7.80
2017-06-22T14:28:56.972Z,8.43
2017-06-22T14:31:25.404Z,9.73
2017-06-22T14:33:53.842Z,7.60
2017-06-22T14:36:22.318Z,7.57
2017-06-22T14:38:50.772Z,7.70
2017-06-22T14:41:19.136Z,7.27
2017-06-22T14:43:47.447Z,7.07
2017-06-22T14:46:15.798Z,7.40
2017-06-22T14:48:44.144Z,7.43
2017-06-22T14:51:12.495Z,7.43
2017-06-22T14:53:40.811Z,7.00
2017-06-22T14:56:09.143Z,7.77
2017-06-22T14:58:37.477Z,9.23
2017-06-22T15:01:05.830Z,7.20
2017-06-22T15:03:34.170Z,6.97
2017-06-22T15:06:02.506Z,7.80
2017-06-22T15:08:30.847Z,7.43
2017-06-22T15:11:00.087Z,7.70
2017-06-22T15:13:28.464Z,8.30
2017-06-22T15:15:56.809Z,7.87
2017-06-22T15:18:25.156Z,13.40
2017-06-22T15:20:58.324Z,8.30
2017-06-22T15:23:26.789Z,7.67
2017-06-22T15:25:55.113Z,7.93
2017-06-22T15:28:23.468Z,7.90
2017-06-22T15:30:51.825Z,9.97
2017-06-22T15:33:20.158Z,7.00
2017-06-22T15:35:48.494Z,6.17
2017-06-22T15:38:16.844Z,6.43
2017-06-22T15:40:45.170Z,8.87
2017-06-22T15:43:13.501Z,6.10
2017-06-22T15:45:41.840Z,6.80
2017-06-22T15:48:10.291Z,6.30
2017-06-22T15:50:38.603Z,6.70
2017-06-22T15:53:06.968Z,6.40
2017-06-22T15:55:35.305Z,6.87
2017-06-22T15:58:03.633Z,7.70
2017-06-22T16:00:32.685Z,8.17
2017-06-22T16:03:01.046Z,7.40
2017-06-22T16:05:29.389Z,7.67
2017-06-22T16:07:57.809Z,7.60
2017-06-22T16:10:26.201Z,6.50
2017-06-22T16:12:54.550Z,7.20
2017-06-22T16:15:22.951Z,7.10
2017-06-22T16:17:51.265Z,8.13
2017-06-22T16:20:19.643Z,7.47
2017-06-22T16:22:47.990Z,9.80
2017-06-22T16:25:16.373Z,7.50
2017-06-22T16:27:44.704Z,6.83
2017-06-22T16:30:13.136Z,8.27
2017-06-22T16:32:41.492Z,9.20
2017-06-22T16:35:09.889Z,7.13
2017-06-22T16:37:38.248Z,7.77
2017-06-22T16:40:06.608Z,6.70
2017-06-22T16:42:34.929Z,7.30
2017-06-22T16:45:03.351Z,6.93
2017-06-22T16:47:31.701Z,7.27
2017-06-22T16:50:00.524Z,7.20
2017-06-22T16:52:29.065Z,7.43
2017-06-22T16:54:57.518Z,7.63
2017-06-22T16:57:26.268Z,7.00
2017-06-22T16:59:54.649Z,7.57
2017-06-22T17:02:23.137Z,7.73
2017-06-22T17:04:51.591Z,8.27
2017-06-22T17:07:20.256Z,8.80
2017-06-22T17:09:48.613Z,8.07
2017-06-22T17:12:17.233Z,8.30
2017-06-22T17:14:46.058Z,8.43
2017-06-22T17:17:14.397Z,7.87
2017-06-22T17:19:43.057Z,7.93
2017-06-22T17:22:12.282Z,8.37
2017-06-22T17:24:41.148Z,8.37
2017-06-22T17:27:10.623Z,7.87
2017-06-22T17:29:39.030Z,8.97
2017-06-22T17:32:07.523Z,8.30
2017-06-22T17:34:36.484Z,8.43
2017-06-22T17:37:05.181Z,8.30
2017-06-22T17:39:33.907Z,9.20
2017-06-22T17:42:02.566Z,9.33
2017-06-22T17:44:31.219Z,8.70
2017-06-22T17:46:59.870Z,9.63
2017-06-22T17:49:28.440Z,9.80
2017-06-22T17:51:57.422Z,10.70
2017-06-22T17:54:26.007Z,10.90
2017-06-22T17:56:54.343Z,10.13
2017-06-22T17:59:22.693Z,10.27
2017-06-22T18:01:51.061Z,12.80
2017-06-22T18:04:19.415Z,14.27
2017-06-22T18:06:47.760Z,10.73
2017-06-22T18:09:16.098Z,14.63
2017-06-22T18:11:44.856Z,10.80
2017-06-22T18:14:13.214Z,11.40
2017-06-22T18:16:41.870Z,10.57
2017-06-22T18:19:11.248Z,12.00
2017-06-22T18:21:39.591Z,12.73
2017-06-22T18:24:08.004Z,11.27
2017-06-22T18:26:36.352Z,14.03
2017-06-22T18:29:04.836Z,10.83
2017-06-22T18:31:34.701Z,12.67
2017-06-22T18:34:04.697Z,19.00
2017-06-22T18:36:33.433Z,15.23
2017-06-22T18:39:01.770Z,16.20
2017-06-22T18:41:30.169Z,16.13
2017-06-22T18:43:57.829Z,15.63
2017-06-22T18:46:25.220Z,21.13
2017-06-22T18:48:52.677Z,16.60
2017-06-22T18:51:20.076Z,18.50
2017-06-22T18:53:47.525Z,21.63
2017-06-22T18:56:14.949Z,19.40
2017-06-22T18:58:42.346Z,14.70
2017-06-22T19:01:09.752Z,15.17
2017-06-22T19:03:37.257Z,14.47
2017-06-22T19:06:04.689Z,20.40
2017-06-22T19:08:32.400Z,20.67
2017-06-22T19:10:59.838Z,14.97
2017-06-22T19:13:27.611Z,20.77
2017-06-22T19:15:55.440Z,18.40
2017-06-22T19:18:23.104Z,17.17
2017-06-22T19:20:50.999Z,19.87
2017-06-22T19:23:18.761Z,16.20
2017-06-22T19:25:47.681Z,18.27
2017-06-22T19:28:15.725Z,14.90
2017-06-22T19:30:43.564Z,16.37
2017-06-22T19:33:11.512Z,23.47
2017-06-22T19:35:39.221Z,17.23
2017-06-22T19:38:07.373Z,18.30
2017-06-22T19:40:35.373Z,15.03
2017-06-22T19:43:03.132Z,16.60
2017-06-22T19:45:30.819Z,16.03
2017-06-22T19:47:58.353Z,17.13
2017-06-22T19:50:26.009Z,14.57
2017-06-22T19:52:53.865Z,17.00
2017-06-22T19:55:22.064Z,16.70
2017-06-22T19:57:49.637Z,16.10
2017-06-22T20:00:17.797Z,16.33
2017-06-22T20:02:45.464Z,14.93
2017-06-22T20:05:13.032Z,14.90
2017-06-22T20:07:40.727Z,14.47
2017-06-22T20:10:08.723Z,15.80
2017-06-22T20:12:36.321Z,16.00
2017-06-22T20:15:03.871Z,18.03
2017-06-22T20:17:31.527Z,17.97
2017-06-22T20:19:59.415Z,15.43
2017-06-22T20:22:27.260Z,15.73
2017-06-22T20:24:54.874Z,16.73
2017-06-22T20:27:22.589Z,16.13
2017-06-22T20:29:50.236Z,17.30
2017-06-22T20:32:18.115Z,15.90
2017-06-22T20:34:46.056Z,17.93
2017-06-22T20:37:13.912Z,20.60
2017-06-22T20:39:42.639Z,15.03
2017-06-22T20:42:10.508Z,15.30
2017-06-22T20:44:38.075Z,17.73
2017-06-22T20:47:06.227Z,19.00
2017-06-22T20:49:33.831Z,16.87
2017-06-22T20:52:01.442Z,18.90
2017-06-22T20:54:29.211Z,15.37
2017-06-22T20:56:57.094Z,16.17
2017-06-22T20:59:24.568Z,15.53
2017-06-22T21:01:51.961Z,16.47
2017-06-22T21:04:19.555Z,18.60
2017-06-22T21:06:47.075Z,16.30
2017-06-22T21:09:15.609Z,18.93
2017-06-22T21:11:43.178Z,17.30
2017-06-22T21:14:10.577Z,15.37
2017-06-22T21:16:38.347Z,16.07
2017-06-22T21:19:06.058Z,16.53
2017-06-22T21:21:33.689Z,17.13
2017-06-22T21:24:01.312Z,19.80
2017-06-22T21:26:28.923Z,21.90
2017-06-22T21:28:56.372Z,16.60
2017-06-22T21:31:24.571Z,15.30
2017-06-22T21:33:52.259Z,20.33
2017-06-22T21:36:20.853Z,17.20
2017-06-22T21:38:48.376Z,16.00
2017-06-22T21:41:16.074Z,16.90
2017-06-22T21:43:43.780Z,17.63
2017-06-22T21:46:11.440Z,16.40
2017-06-22T21:48:38.846Z,16.47
2017-06-22T21:51:06.327Z,17.90
2017-06-22T21:53:33.755Z,15.93
2017-06-22T21:56:01.201Z,17.67
2017-06-22T21:58:28.601Z,15.37
2017-06-22T22:00:56.028Z,15.63
2017-06-22T22:03:23.448Z,21.63
2017-06-22T22:05:50.848Z,18.07
2017-06-22T22:08:18.265Z,17.03
2017-06-22T22:10:45.670Z,15.77
2017-06-22T22:13:13.117Z,17.20
2017-06-22T22:15:40.528Z,19.90
2017-06-22T22:18:07.929Z,23.73
2017-06-22T22:20:35.361Z,17.73
2017-06-22T22:23:02.749Z,18.17
2017-06-22T22:25:30.156Z,20.97
2017-06-22T22:27:57.580Z,15.90
2017-06-22T22:30:24.972Z,20.03
2017-06-22T22:32:52.473Z,16.33
2017-06-22T22:35:19.886Z,16.57
2017-06-22T22:37:47.285Z,16.93
2017-06-22T22:40:14.758Z,16.87
2017-06-22T22:42:42.197Z,16.07
2017-06-22T22:45:09.636Z,21.13
2017-06-22T22:47:37.047Z,18.30
2017-06-22T22:50:04.475Z,40.93
2017-06-22T22:52:31.874Z,29.07
2017-06-22T22:54:59.293Z,19.10
2017-06-22T22:57:26.735Z,18.00
2017-06-22T22:59:54.228Z,21.50
2017-06-22T23:02:21.626Z,17.73
2017-06-22T23:04:49.053Z,17.27
2017-06-22T23:07:16.463Z,17.63
2017-06-22T23:09:43.872Z,16.67
2017-06-22T23:12:11.266Z,19.17
2017-06-22T23:14:38.732Z,19.00
2017-06-22T23:17:06.135Z,20.03
2017-06-22T23:19:33.725Z,20.13
2017-06-22T23:22:01.149Z,19.00
2017-06-22T23:24:28.581Z,19.03
2017-06-22T23:26:56.005Z,18.10
2017-06-22T23:29:23.410Z,18.57
2017-06-22T23:31:50.864Z,31.47
2017-06-22T23:34:18.289Z,19.93
2017-06-22T23:36:45.685Z,19.30
2017-06-22T23:39:13.115Z,17.60
2017-06-22T23:41:40.528Z,18.77
2017-06-22T23:44:07.937Z,18.40
2017-06-22T23:46:35.342Z,19.23
2017-06-22T23:49:02.749Z,17.70
2017-06-22T23:51:30.220Z,18.57
2017-06-22T23:53:57.624Z,19.00
2017-06-22T23:56:25.033Z,18.00
2017-06-22T23:58:52.453Z,23.40
